Time;durP1;ratioP1;P1;durP2;ratioP2;P2;SDS_P1;SDS_P2;PMS_P1;PMS_P2;Temp;Humidity;BMP_temperature;BMP_pressure;BME280_temperature;BME280_humidity;BME280_pressure;Samples;Min_cycle;Max_cycle;Signal;HPM_P1;HPM_P2
2021/10/27 00:01:43;;;;;;;26.40;20.07;;;6.20;99.90;;;4.89;100.00;98887.00;5111854;28;20503;-74
2021/10/27 00:04:10;;;;;;;26.20;20.53;;;6.20;99.90;;;4.93;100.00;98891.06;5112868;28;20472;-75
2021/10/27 00:06:37;;;;;;;24.83;20.30;;;6.20;99.90;;;4.85;100.00;98888.34;5095055;28;20986;-74
2021/10/27 00:09:06;;;;;;;24.10;19.90;;;6.20;99.90;;;4.79;100.00;98885.28;5093182;28;21047;-73
2021/10/27 00:11:33;;;;;;;25.13;19.47;;;6.20;99.90;;;4.79;100.00;98879.09;5103722;28;20774;-73
2021/10/27 00:14:01;;;;;;;22.63;18.90;;;6.10;99.90;;;4.78;100.00;98878.25;5089777;28;20516;-74
2021/10/27 00:16:28;;;;;;;24.00;20.33;;;6.20;99.90;;;4.77;100.00;98894.47;5092452;28;20465;-74
2021/10/27 00:18:55;;;;;;;22.20;18.70;;;6.10;99.90;;;4.80;100.00;98878.09;5110457;28;20521;-74
2021/10/27 00:21:22;;;;;;;20.30;18.17;;;6.10;99.90;;;4.72;100.00;98878.88;5086942;28;20457;-75
2021/10/27 00:23:50;;;;;;;21.70;17.70;;;6.10;99.90;;;4.36;100.00;98828.09;5098064;28;20535;-73
2021/10/27 00:26:18;;;;;;;23.73;18.90;;;6.00;99.90;;;4.64;100.00;98884.19;5107846;28;20448;-73
2021/10/27 00:28:45;;;;;;;25.53;18.70;;;6.00;99.90;;;4.60;100.00;98885.47;5100586;28;20462;-72
2021/10/27 00:31:12;;;;;;;21.77;19.50;;;6.00;99.90;;;4.57;100.00;98891.13;5106040;28;20446;-73
2021/10/27 00:33:40;;;;;;;19.93;17.83;;;5.90;99.90;;;4.54;100.00;98893.13;5085143;28;20507;-73
2021/10/27 00:36:08;;;;;;;21.03;18.20;;;5.90;99.90;;;4.54;100.00;98882.44;5087789;28;20743;-73
2021/10/27 00:38:35;;;;;;;32.07;19.17;;;5.90;99.90;;;4.49;100.00;98881.22;5114378;28;20456;-73
2021/10/27 00:41:02;;;;;;;23.67;19.07;;;5.90;99.90;;;4.52;100.00;98876.41;5109253;28;20989;-73
2021/10/27 00:43:30;;;;;;;31.33;17.93;;;5.90;99.90;;;4.56;100.00;98884.09;5109937;28;20543;-73
2021/10/27 00:45:57;;;;;;;26.00;19.17;;;5.90;99.90;;;4.51;100.00;98877.38;5111520;28;20951;-73
2021/10/27 00:48:24;;;;;;;25.27;19.73;;;5.90;99.90;;;4.46;100.00;98870.81;5110198;28;20927;-73
2021/10/27 00:50:52;;;;;;;23.07;20.33;;;5.90;99.90;;;4.42;100.00;98867.59;5097767;28;21041;-73
2021/10/27 00:53:20;;;;;;;25.73;19.40;;;5.80;99.90;;;4.36;100.00;98862.88;5114605;28;20469;-75
2021/10/27 00:55:48;;;;;;;27.93;20.27;;;5.80;99.90;;;4.41;100.00;98859.75;5121847;28;20975;-74
2021/10/27 00:58:15;;;;;;;24.10;19.47;;;5.80;99.90;;;4.48;100.00;98866.16;5109257;28;21003;-74
2021/10/27 01:00:44;;;;;;;24.00;19.10;;;5.80;99.90;;;4.38;100.00;98861.72;5090880;28;20453;-74
2021/10/27 01:03:11;;;;;;;22.27;18.70;;;5.80;99.90;;;4.39;100.00;98873.28;5092210;28;20467;-73
2021/10/27 01:05:38;;;;;;;21.40;18.70;;;5.80;99.90;;;4.39;100.00;98867.91;5101607;28;20987;-74
2021/10/27 01:08:05;;;;;;;26.00;19.10;;;5.80;99.90;;;4.37;100.00;98872.59;5111894;28;20454;-73
2021/10/27 01:10:32;;;;;;;21.23;18.70;;;5.80;99.90;;;4.45;100.00;98874.50;5117950;28;20543;-73
2021/10/27 01:13:00;;;;;;;24.17;19.20;;;5.80;99.90;;;4.41;100.00;98871.28;5109499;28;20540;-74
2021/10/27 01:15:27;;;;;;;24.80;19.43;;;5.80;99.90;;;4.33;100.00;98876.59;5109608;28;20931;-73
2021/10/27 01:17:55;;;;;;;23.60;19.63;;;5.80;99.90;;;4.26;100.00;98868.31;5089641;28;20888;-74
2021/10/27 01:20:24;;;;;;;22.90;19.00;;;5.70;99.90;;;4.28;100.00;98876.19;5084680;28;24040;-75
2021/10/27 01:22:51;;;;;;;22.00;18.77;;;5.70;99.90;;;4.28;100.00;98876.19;5105208;28;20544;-74
2021/10/27 01:25:18;;;;;;;23.83;19.53;;;5.60;99.90;;;4.20;100.00;98882.31;5110675;28;21039;-73
2021/10/27 01:27:47;;;;;;;22.30;19.97;;;5.60;99.90;;;4.28;100.00;98881.53;5091943;28;20458;-74
2021/10/27 01:30:17;;;;;;;24.43;18.70;;;5.60;99.90;;;4.17;100.00;98887.97;5088156;28;20508;-75
2021/10/27 01:32:45;;;;;;;24.43;18.13;;;5.60;99.90;;;4.16;100.00;98878.25;5089341;28;20580;-74
2021/10/27 01:35:13;;;;;;;26.70;20.10;;;5.60;99.90;;;4.13;100.00;98879.38;5108042;27;20575;-74
2021/10/27 01:37:43;;;;;;;22.67;18.43;;;5.60;99.90;;;4.19;100.00;98884.16;5107566;27;20503;-74
2021/10/27 01:40:13;;;;;;;24.80;18.80;;;5.50;99.90;;;4.16;100.00;98883.59;5087480;28;20527;-73
2021/10/27 01:42:41;;;;;;;22.17;17.90;;;5.50;99.90;;;4.13;100.00;98878.56;5109416;28;20504;-73
2021/10/27 01:45:10;;;;;;;24.10;19.43;;;5.50;99.90;;;4.18;100.00;98882.47;5106166;27;20839;-74
2021/10/27 01:47:43;;;;;;;22.83;19.50;;;5.50;99.90;;;4.10;100.00;98877.88;5106395;28;20466;-73
2021/10/27 01:50:11;;;;;;;24.10;19.40;;;5.50;99.90;;;4.09;100.00;98878.03;5110519;27;20458;-74
2021/10/27 01:52:38;;;;;;;24.90;19.47;;;5.50;99.90;;;4.09;100.00;98883.38;5109460;28;20984;-74
2021/10/27 01:55:08;;;;;;;25.10;20.60;;;5.50;99.90;;;4.04;100.00;98880.31;5106814;27;20583;-75
2021/10/27 01:57:35;;;;;;;23.50;20.10;;;5.40;99.90;;;4.08;100.00;98889.72;5113445;27;20541;-74
2021/10/27 02:00:04;;;;;;;25.73;21.00;;;5.50;99.90;;;4.04;100.00;98885.69;5090920;28;20448;-74
2021/10/27 02:02:31;;;;;;;27.53;19.77;;;5.50;99.90;;;4.13;100.00;98892.75;5109519;27;20959;-73
2021/10/27 02:04:58;;;;;;;23.23;20.13;;;5.50;99.90;;;4.11;100.00;98886.72;5090642;27;20907;-73
2021/10/27 02:07:25;;;;;;;22.93;19.60;;;5.50;99.90;;;4.15;100.00;98887.28;5111964;27;20541;-74
2021/10/27 02:09:52;;;;;;;22.53;19.50;;;5.50;99.90;;;3.91;100.00;98873.50;5088509;27;20948;-76
2021/10/27 02:12:20;;;;;;;23.73;18.90;;;5.40;99.90;;;3.93;100.00;98874.19;5109858;27;20548;-74
2021/10/27 02:14:47;;;;;;;30.53;19.67;;;5.40;99.90;;;3.96;100.00;98894.47;5109250;27;20547;-74
2021/10/27 02:17:14;;;;;;;20.80;18.40;;;5.40;99.90;;;3.76;100.00;98877.69;5103942;27;20592;-74
2021/10/27 02:19:41;;;;;;;22.80;18.93;;;5.30;99.90;;;3.64;100.00;98891.25;5110101;27;20453;-73
2021/10/27 02:22:08;;;;;;;23.97;19.00;;;5.10;99.90;;;3.69;100.00;98891.66;5108345;27;20601;-75
2021/10/27 02:24:35;;;;;;;20.33;18.20;;;5.00;99.90;;;3.72;100.00;98901.22;5103520;28;20501;-73
2021/10/27 02:27:03;;;;;;;24.57;17.77;;;5.10;99.90;;;3.62;100.00;98897.72;5104660;27;20490;-74
2021/10/27 02:29:31;;;;;;;20.50;17.17;;;5.00;99.90;;;3.53;100.00;98904.81;5089546;28;20547;-72
2021/10/27 02:31:58;;;;;;;23.13;17.63;;;4.90;99.90;;;3.57;100.00;98908.03;5084942;27;20452;-73
2021/10/27 02:34:25;;;;;;;20.10;15.93;;;4.90;99.90;;;3.64;100.00;98901.09;5101488;27;20516;-73
2021/10/27 02:36:52;;;;;;;20.60;17.97;;;5.00;99.90;;;3.81;100.00;98902.13;5102648;28;20497;-75
2021/10/27 02:39:19;;;;;;;21.43;17.00;;;5.10;99.90;;;3.74;100.00;98896.53;5109686;27;20468;-74
2021/10/27 02:41:46;;;;;;;19.30;16.50;;;5.10;99.90;;;3.71;100.00;98901.34;5106691;27;20491;-74
2021/10/27 02:44:14;;;;;;;19.60;17.23;;;5.10;99.90;;;3.73;100.00;98907.41;5107400;27;20471;-73
2021/10/27 02:46:42;;;;;;;18.03;15.97;;;5.00;99.90;;;3.77;100.00;98906.94;5106896;28;20472;-74
2021/10/27 02:49:09;;;;;;;19.63;17.53;;;5.10;99.90;;;3.60;100.00;98900.56;5102574;27;20512;-74
2021/10/27 02:51:36;;;;;;;22.77;17.30;;;5.00;99.90;;;3.62;100.00;98897.72;5082820;28;20493;-73
2021/10/27 02:54:03;;;;;;;20.57;16.37;;;5.00;99.90;;;3.61;100.00;98912.09;5104538;28;20496;-73
2021/10/27 02:56:31;;;;;;;21.70;17.10;;;5.00;99.90;;;3.60;100.00;98913.94;5088450;28;20872;-73
2021/10/27 02:58:58;;;;;;;21.23;17.30;;;4.90;99.90;;;3.59;100.00;98914.06;5093419;28;20464;-73
2021/10/27 03:01:25;;;;;;;24.87;17.00;;;5.00;99.90;;;3.45;100.00;98920.75;5103656;27;20464;-72
2021/10/27 03:03:54;;;;;;;20.00;17.10;;;4.90;99.90;;;3.36;100.00;98915.31;5093505;28;20445;-74
2021/10/27 03:06:21;;;;;;;23.20;17.30;;;4.80;99.90;;;3.32;100.00;98916.59;5107739;28;20839;-73
2021/10/27 03:08:48;;;;;;;25.70;18.10;;;4.70;99.90;;;3.44;100.00;98901.19;5107363;27;20576;-74
2021/10/27 03:11:15;;;;;;;22.90;17.87;;;4.80;99.90;;;3.46;100.00;98919.78;5109356;28;20463;-74
2021/10/27 03:13:42;;;;;;;25.03;18.80;;;4.80;99.90;;;3.34;100.00;98917.28;5109547;27;20567;-74
2021/10/27 03:16:09;;;;;;;21.83;19.13;;;4.80;99.90;;;3.31;100.00;98904.22;5090771;28;20559;-74
2021/10/27 03:18:36;;;;;;;20.57;17.60;;;4.70;99.90;;;3.35;100.00;98907.44;5093498;27;20572;-74
2021/10/27 03:21:05;;;;;;;20.97;18.30;;;4.80;99.90;;;3.38;100.00;98909.81;5112793;27;20568;-73
2021/10/27 03:23:32;;;;;;;24.13;19.63;;;4.80;99.90;;;3.25;100.00;98907.47;5091245;28;20461;-73
2021/10/27 03:25:58;;;;;;;28.30;22.37;;;4.70;99.90;;;3.37;100.00;98895.59;5098032;27;20505;-74
2021/10/27 03:28:25;;;;;;;26.80;21.80;;;4.70;99.90;;;3.39;100.00;98898.16;5104276;27;20476;-74
2021/10/27 03:30:52;;;;;;;21.87;19.03;;;4.80;99.90;;;3.47;100.00;98908.09;5108809;27;20515;-72
2021/10/27 03:33:19;;;;;;;27.53;19.70;;;4.80;99.90;;;3.37;100.00;98900.94;5089652;28;20447;-73
2021/10/27 03:35:47;;;;;;;27.13;19.90;;;4.80;99.90;;;3.37;100.00;98906.28;5106406;27;20469;-72
2021/10/27 03:38:15;;;;;;;24.73;20.57;;;4.80;99.90;;;3.34;100.00;98903.94;5085063;28;20473;-73
2021/10/27 03:40:43;;;;;;;25.23;20.87;;;4.80;99.90;;;3.25;100.00;98902.13;5102143;28;20484;-72
2021/10/27 03:43:10;;;;;;;26.80;20.47;;;4.70;99.90;;;3.34;100.00;98890.56;5102619;27;20460;-73
2021/10/27 03:45:38;;;;;;;31.70;20.80;;;4.80;99.90;;;3.36;100.00;98903.78;5102526;28;20459;-75
2021/10/27 03:48:05;;;;;;;22.70;20.20;;;4.80;99.90;;;3.31;100.00;98906.91;5084147;28;20484;-72
2021/10/27 03:50:32;;;;;;;26.60;20.70;;;4.80;99.90;;;3.32;100.00;98911.25;5100183;28;20531;-73
2021/10/27 03:53:00;;;;;;;26.93;21.73;;;4.80;99.90;;;3.29;100.00;98914.22;5080233;28;20502;-75
2021/10/27 03:55:28;;;;;;;29.53;22.07;;;4.70;99.90;;;3.24;100.00;98917.31;5078432;28;20475;-74
2021/10/27 03:57:58;;;;;;;25.87;20.83;;;4.70;99.90;;;3.16;100.00;98919.88;5098612;27;21135;-73
2021/10/27 04:00:26;;;;;;;26.33;20.23;;;4.60;99.90;;;3.16;100.00;98921.72;5106712;28;20535;-73
2021/10/27 04:02:53;;;;;;;24.10;20.73;;;4.60;99.90;;;3.05;100.00;98909.38;5109858;27;20545;-74
2021/10/27 04:05:20;;;;;;;23.83;19.67;;;4.60;99.90;;;3.11;100.00;98922.16;5113740;27;20779;-73
2021/10/27 04:07:47;;;;;;;26.63;20.87;;;4.50;99.90;;;3.07;100.00;98926.94;5113827;28;20463;-74
2021/10/27 04:10:15;;;;;;;31.60;21.93;;;4.50;99.90;;;3.08;100.00;98925.94;5091473;28;20478;-73
2021/10/27 04:12:43;;;;;;;26.23;21.23;;;4.60;99.90;;;3.09;100.00;98927.63;5094378;28;20453;-74
2021/10/27 04:15:12;;;;;;;28.20;21.70;;;4.50;99.90;;;3.15;100.00;98928.03;5116785;28;20551;-73
2021/10/27 04:17:39;;;;;;;26.40;20.70;;;4.60;99.90;;;3.09;100.00;98934.81;5095815;28;20842;-73
2021/10/27 04:20:08;;;;;;;27.27;20.93;;;4.60;99.90;;;3.13;100.00;98938.84;5092673;28;20524;-72
2021/10/27 04:22:39;;;;;;;26.20;20.67;;;4.60;99.90;;;3.08;100.00;98944.63;5109277;28;20453;-72
2021/10/27 04:25:09;;;;;;;26.90;21.87;;;4.50;99.90;;;3.11;100.00;98941.69;5088357;28;20473;-73
2021/10/27 04:27:36;;;;;;;28.57;21.90;;;4.60;99.90;;;3.13;100.00;98935.38;5110041;28;20887;-72
2021/10/27 04:30:07;;;;;;;25.20;21.07;;;4.60;99.90;;;3.09;100.00;98948.97;5096058;28;20972;-73
2021/10/27 04:32:34;;;;;;;27.50;21.37;;;4.50;99.90;;;3.10;100.00;98937.31;5103604;28;20458;-72
2021/10/27 04:35:02;;;;;;;25.23;20.60;;;4.50;99.90;;;3.01;100.00;98940.00;5084219;28;20911;-72
2021/10/27 04:37:33;;;;;;;24.87;19.73;;;4.50;99.90;;;2.94;100.00;98937.06;5101181;28;20487;-72
2021/10/27 04:40:00;;;;;;;24.83;19.90;;;4.40;99.90;;;2.93;100.00;98944.25;5103370;28;20458;-73
2021/10/27 04:42:27;;;;;;;24.80;20.47;;;4.40;99.90;;;2.88;100.00;98929.66;5108567;28;20521;-73
2021/10/27 04:44:54;;;;;;;20.10;17.90;;;4.40;99.90;;;2.82;100.00;98939.94;5105708;28;20453;-72
2021/10/27 04:47:22;;;;;;;21.80;17.67;;;4.30;99.90;;;2.80;100.00;98947.22;5086011;28;20456;-73
2021/10/27 04:49:49;;;;;;;21.80;17.97;;;4.20;99.90;;;2.76;100.00;98928.97;5074168;28;20459;-73
2021/10/27 04:52:16;;;;;;;27.07;18.90;;;4.20;99.90;;;2.81;100.00;98940.06;5082065;28;20472;-73
2021/10/27 04:54:43;;;;;;;21.50;17.67;;;4.20;99.90;;;2.91;100.00;98940.03;5098187;28;20542;-74
2021/10/27 04:57:11;;;;;;;23.23;17.60;;;4.20;99.90;;;2.90;100.00;98941.03;5100227;28;20453;-74
2021/10/27 04:59:42;;;;;;;21.70;18.43;;;4.30;99.90;;;2.90;100.00;98944.53;5112653;28;20462;-74
2021/10/27 05:02:09;;;;;;;21.80;18.30;;;4.30;99.90;;;2.77;100.00;98919.97;5110818;28;20545;-73
2021/10/27 05:04:38;;;;;;;25.33;20.40;;;4.30;99.90;;;2.98;100.00;98933.16;5092071;28;20539;-73
2021/10/27 05:07:05;;;;;;;26.30;20.73;;;4.40;99.90;;;2.94;100.00;98942.41;5116328;27;20979;-74
2021/10/27 05:09:33;;;;;;;26.10;22.00;;;4.40;99.90;;;2.97;100.00;98939.47;5107556;28;20572;-74
2021/10/27 05:12:00;;;;;;;26.37;21.10;;;4.40;99.90;;;3.28;100.00;98936.59;5097565;28;20990;-74
2021/10/27 05:14:27;;;;;;;27.17;21.33;;;4.60;99.90;;;3.39;100.00;98931.03;5095494;28;20449;-73
2021/10/27 05:16:54;;;;;;;28.97;21.37;;;4.60;99.90;;;3.29;100.00;98924.91;5109610;27;20468;-74
2021/10/27 05:19:21;;;;;;;30.67;21.57;;;4.80;99.90;;;3.16;100.00;98914.53;5110597;28;20519;-73
2021/10/27 05:21:49;;;;;;;25.70;21.40;;;4.70;99.90;;;3.37;100.00;98926.84;5090132;28;21033;-78
2021/10/27 05:24:16;;;;;;;27.57;20.73;;;4.80;99.90;;;3.33;100.00;98926.28;5116135;27;20494;-78
2021/10/27 05:26:43;;;;;;;27.03;19.87;;;4.80;99.90;;;3.36;100.00;98925.16;5101510;27;20456;-79
2021/10/27 05:29:10;;;;;;;25.47;20.70;;;4.80;99.90;;;3.25;100.00;98923.50;5094949;28;20535;-77
2021/10/27 05:31:37;;;;;;;24.90;19.53;;;4.80;99.90;;;3.20;100.00;98928.44;5096341;28;20445;-77
2021/10/27 05:34:05;;;;;;;27.43;20.57;;;4.70;99.90;;;3.15;100.00;98928.88;5121209;27;20483;-77
2021/10/27 05:36:32;;;;;;;25.33;20.20;;;4.60;99.90;;;3.24;100.00;98927.16;5081138;28;20501;-80
2021/10/27 05:39:01;;;;;;;26.10;19.67;;;4.70;99.90;;;3.23;100.00;98936.16;5117227;27;20457;-76
2021/10/27 05:41:28;;;;;;;29.20;19.80;;;4.60;99.90;;;3.26;100.00;98938.53;5107951;28;20492;-74
2021/10/27 05:43:56;;;;;;;28.27;20.30;;;4.60;99.90;;;3.20;100.00;98942.66;5111346;27;20507;-73
2021/10/27 05:46:24;;;;;;;28.00;20.77;;;4.70;99.90;;;3.09;100.00;98950.81;5087530;28;20496;-73
2021/10/27 05:49:00;;;;;;;25.00;18.97;;;4.60;99.90;;;3.10;100.00;98952.50;5108532;27;20508;-73
2021/10/27 05:51:37;;;;;;;24.33;19.67;;;4.50;99.90;;;2.92;100.00;98955.06;5109643;28;20450;-74
2021/10/27 05:56:52;;;;;;;25.47;19.50;;;4.40;99.90;;;2.88;100.00;98953.69;5092957;28;21150;-77
2021/10/27 05:59:19;;;;;;;25.93;20.87;;;4.30;99.90;;;2.86;100.00;98950.31;5091566;27;20459;-74
2021/10/27 06:01:46;;;;;;;29.13;21.00;;;4.30;99.90;;;2.78;100.00;98961.69;5085005;28;20517;-74
2021/10/27 06:04:12;;;;;;;23.97;19.87;;;4.30;99.90;;;2.86;100.00;98961.00;5103271;28;20544;-74
2021/10/27 06:06:40;;;;;;;25.13;20.27;;;4.30;99.90;;;2.75;100.00;98960.16;5106999;28;20483;-74
2021/10/27 06:09:08;;;;;;;32.17;19.80;;;4.20;99.90;;;2.82;100.00;98955.94;5085343;28;20463;-73
2021/10/27 06:11:36;;;;;;;26.60;21.10;;;4.30;99.90;;;2.66;100.00;98955.69;5109018;27;20492;-75
2021/10/27 06:14:03;;;;;;;28.67;21.83;;;4.20;99.90;;;2.68;100.00;98954.53;5092053;28;20864;-73
2021/10/27 06:16:33;;;;;;;26.73;20.37;;;4.20;99.90;;;2.90;100.00;98963.22;5099687;27;20467;-74
2021/10/27 06:19:00;;;;;;;26.80;21.07;;;4.30;99.90;;;3.34;100.00;98951.19;5106468;27;20457;-77
2021/10/27 06:21:28;;;;;;;27.37;20.83;;;4.60;99.90;;;3.02;100.00;98961.25;5086192;28;20457;-76
2021/10/27 06:23:55;;;;;;;26.93;19.17;;;4.50;99.90;;;3.28;100.00;98970.44;5104322;27;20543;-77
2021/10/27 06:26:24;;;;;;;26.53;20.20;;;4.50;99.90;;;3.05;100.00;98955.59;5090087;28;20810;-76
2021/10/27 06:31:35;;;;;;;24.50;17.17;;;4.80;99.90;;;3.08;100.00;98982.00;5104784;27;20539;-75
2021/10/27 06:34:17;;;;;;;29.33;20.87;;;4.60;99.90;;;3.16;100.00;98983.97;5090960;28;20452;-75
2021/10/27 06:36:59;;;;;;;22.93;19.23;;;4.60;99.90;;;3.14;100.00;98979.78;5101502;27;20477;-73
2021/10/27 06:45:55;;;;;;;24.67;19.70;;;4.60;99.90;;;3.10;100.00;98990.72;5088934;28;20467;-75
2021/10/27 06:47:52;;;;;;;25.60;21.47;;;4.70;99.90;;;3.29;100.00;99002.38;5077747;28;20468;-73
2021/10/27 06:50:19;;;;;;;24.70;19.03;;;4.80;99.90;;;3.21;100.00;98997.75;5105131;27;20516;-73
2021/10/27 06:52:46;;;;;;;24.60;18.60;;;4.70;99.90;;;3.34;100.00;99005.44;5098999;27;20518;-73
2021/10/27 06:55:13;;;;;;;22.07;18.53;;;4.70;99.90;;;3.43;100.00;99000.22;5104144;27;20476;-72
2021/10/27 06:57:42;;;;;;;24.40;19.73;;;4.80;99.90;;;3.36;100.00;99007.97;5093960;28;20914;-73
2021/10/27 07:00:17;;;;;;;29.50;20.40;;;4.80;99.90;;;3.38;100.00;99001.47;5083931;28;21040;-73
2021/10/27 07:05:56;;;;;;;28.10;20.10;;;5.00;99.90;;;3.47;100.00;99009.63;5064194;28;20475;-73
2021/10/27 07:16:53;;;;;;;22.67;18.60;;;5.00;99.90;;;3.92;100.00;99027.59;5090009;28;20483;-73
2021/10/27 07:19:20;;;;;;;25.17;19.87;;;5.10;99.90;;;3.85;100.00;99026.50;5105748;28;20533;-73
2021/10/27 07:21:47;;;;;;;25.80;20.10;;;5.20;99.90;;;4.01;100.00;99027.69;5098265;27;20545;-73
2021/10/27 07:24:16;;;;;;;25.00;20.53;;;5.30;99.90;;;4.07;100.00;99030.63;5099079;27;20457;-73
2021/10/27 07:26:43;;;;;;;22.10;18.80;;;5.40;99.90;;;4.37;100.00;99025.13;5098795;28;20504;-73
2021/10/27 07:29:15;;;;;;;26.90;17.90;;;5.60;99.90;;;4.18;100.00;99032.28;5077266;28;20466;-72
2021/10/27 07:31:43;;;;;;;21.40;18.20;;;5.50;99.90;;;4.18;100.00;99042.97;5096224;28;20774;-72
2021/10/27 07:34:12;;;;;;;22.63;18.90;;;5.60;99.90;;;4.12;100.00;99032.84;5076443;28;20453;-72
2021/10/27 07:39:52;;;;;;;25.03;18.80;;;5.50;99.90;;;4.33;100.00;99040.63;5104277;27;20596;-73
2021/10/27 07:42:13;;;;;;;22.30;16.80;;;5.80;99.90;;;4.97;100.00;99037.06;5064320;28;20460;-71
2021/10/27 07:44:41;;;;;;;21.60;18.00;;;6.30;99.90;;;5.03;100.00;99033.75;5103946;27;20467;-74
2021/10/27 07:47:09;;;;;;;20.70;16.73;;;6.40;99.90;;;5.51;100.00;99038.78;5099905;27;20563;-73
2021/10/27 07:49:36;;;;;;;19.70;16.17;;;6.60;99.90;;;5.38;100.00;99039.22;5101369;28;20485;-73
2021/10/27 07:52:04;;;;;;;18.77;16.63;;;6.70;99.90;;;5.28;100.00;99050.03;5100286;27;20480;-72
2021/10/27 07:54:31;;;;;;;21.07;17.20;;;6.60;99.80;;;5.34;100.00;99049.41;5088215;27;20554;-74
2021/10/27 07:56:59;;;;;;;19.23;16.80;;;6.70;99.30;;;5.25;99.67;99053.88;5101689;28;20869;-77
2021/10/27 07:59:26;;;;;;;21.70;17.23;;;6.70;97.20;;;5.41;100.00;99048.78;5105462;27;20548;-72
2021/10/27 08:01:55;;;;;;;17.20;15.40;;;6.70;99.70;;;5.24;100.00;99006.63;5105984;27;20543;-72
2021/10/27 08:04:22;;;;;;;16.70;15.10;;;6.80;98.90;;;5.68;99.76;99051.28;5101032;28;20826;-73
2021/10/27 08:06:49;;;;;;;17.47;15.67;;;7.00;98.40;;;6.11;98.55;99044.34;5106543;28;20456;-72
2021/10/27 08:09:16;;;;;;;19.40;17.30;;;7.30;99.30;;;6.52;98.63;99048.00;5101510;28;20461;-72
2021/10/27 08:11:44;;;;;;;16.87;15.10;;;7.60;98.30;;;6.18;97.51;99056.09;5102884;28;20813;-73
2021/10/27 08:14:11;;;;;;;17.70;16.00;;;7.60;95.00;;;5.94;97.85;99045.06;5088455;28;20515;-74
2021/10/27 08:16:39;;;;;;;18.70;16.80;;;7.40;94.60;;;6.08;98.00;99043.69;5106090;28;20469;-74
2021/10/27 08:19:07;;;;;;;17.60;15.80;;;7.50;95.80;;;6.19;97.93;99049.72;5105700;28;20460;-72
2021/10/27 08:21:35;;;;;;;17.23;15.10;;;7.60;94.70;;;6.19;98.61;99052.41;5105014;28;20453;-71
2021/10/27 08:24:02;;;;;;;19.30;16.20;;;7.60;95.30;;;6.23;99.76;99051.13;5088622;28;20983;-72
2021/10/27 08:26:30;;;;;;;17.50;15.30;;;7.60;97.10;;;6.60;97.30;99054.41;5100606;28;20492;-72
2021/10/27 08:28:59;;;;;;;21.50;17.57;;;7.80;94.80;;;6.70;96.09;99054.25;5088803;28;20496;-72
2021/10/27 08:31:36;;;;;;;18.73;15.30;;;7.90;94.40;;;6.76;96.45;99054.44;5103534;28;20469;-73
2021/10/27 08:34:08;;;;;;;20.40;16.90;;;8.10;93.90;;;6.84;95.60;99055.44;5085452;28;20505;-72
2021/10/27 08:36:37;;;;;;;18.50;16.57;;;8.20;92.60;;;6.86;95.44;99059.66;5088963;28;21151;-73
2021/10/27 08:39:05;;;;;;;20.47;16.47;;;8.20;92.40;;;6.68;97.01;99057.09;5108290;28;20511;-73
2021/10/27 08:41:33;;;;;;;19.13;17.27;;;8.10;93.30;;;6.86;95.50;99042.69;5103443;27;20461;-73
2021/10/27 08:44:01;;;;;;;19.50;16.13;;;8.30;92.80;;;7.47;94.94;99051.25;5099121;28;20454;-72
2021/10/27 08:46:29;;;;;;;18.00;16.10;;;8.50;93.60;;;7.69;92.96;99048.03;5106797;27;20538;-74
2021/10/27 08:48:57;;;;;;;17.43;15.23;;;8.80;91.90;;;8.28;90.58;99041.44;5107453;28;20514;-71
2021/10/27 08:51:28;;;;;;;16.50;14.80;;;9.20;90.80;;;7.99;90.93;99053.66;5105556;27;20584;-71
2021/10/27 08:53:58;;;;;;;19.13;17.23;;;9.20;90.40;;;7.84;91.30;99056.22;5091795;28;20474;-74
2021/10/27 08:56:26;;;;;;;19.00;15.53;;;9.10;89.50;;;7.99;90.70;99048.28;5105665;27;20576;-72
2021/10/27 08:58:58;;;;;;;16.40;14.80;;;9.30;89.10;;;7.98;90.49;99060.06;5104707;27;20465;-73
2021/10/27 09:01:35;;;;;;;15.97;14.27;;;9.20;88.80;;;8.31;91.35;99051.88;5108579;27;20459;-75
2021/10/27 09:04:18;;;;;;;16.03;14.40;;;9.40;90.60;;;8.90;88.49;99053.25;5085490;27;20454;-71
2021/10/27 09:07:09;;;;;;;15.47;13.73;;;9.70;88.90;;;9.30;85.46;99056.63;5088772;28;20507;-74
2021/10/27 09:09:53;;;;;;;16.67;13.70;;;10.20;85.70;;;8.81;87.08;99051.59;5086388;28;20460;-72
2021/10/27 09:35:53;;;;;;;15.53;13.90;;;10.70;84.20;;;10.17;85.63;99035.50;5067727;28;20460;-70
2021/10/27 09:41:39;;;;;;;15.97;13.83;;;11.40;82.50;;;10.74;82.00;99024.09;5084961;28;20456;-71
2021/10/27 09:44:40;;;;;;;15.00;13.50;;;11.60;82.40;;;11.04;80.82;99030.25;5068461;28;21126;-74
2021/10/27 10:04:16;;;;;;;14.93;11.87;;;11.90;80.30;;;11.15;81.26;99017.25;5069387;28;20807;-71
2021/10/27 10:06:46;;;;;;;15.37;13.17;;;12.10;80.30;;;11.05;81.32;98999.47;5084015;28;21025;-70
2021/10/27 10:09:14;;;;;;;17.57;13.87;;;12.10;80.50;;;11.10;80.94;99006.16;5068813;28;20471;-71
2021/10/27 10:11:41;;;;;;;13.60;12.30;;;12.20;80.20;;;11.55;80.26;99006.72;5067038;28;20463;-70
2021/10/27 10:14:11;;;;;;;12.70;11.50;;;12.40;80.20;;;11.76;78.54;99000.41;5085433;28;20611;-72
2021/10/27 10:16:44;;;;;;;14.80;13.07;;;12.60;79.10;;;11.51;80.62;99001.88;5084746;28;20483;-76
2021/10/27 10:19:15;;;;;;;15.00;13.50;;;12.70;79.50;;;11.51;80.86;99007.31;5084371;28;20832;-72
2021/10/27 10:21:44;;;;;;;12.17;10.53;;;12.60;79.70;;;12.07;77.37;98995.59;5084814;28;20470;-71
2021/10/27 10:24:38;;;;;;;12.70;11.57;;;13.00;78.30;;;11.30;79.51;99001.75;5086053;28;20498;-70
2021/10/27 10:27:12;;;;;;;18.53;13.07;;;12.70;77.10;;;11.96;77.64;98991.53;5066002;28;20526;-71
2021/10/27 10:29:53;;;;;;;16.40;11.73;;;12.90;77.40;;;12.57;72.96;98995.34;5089148;28;20498;-71
2021/10/27 10:32:49;;;;;;;12.63;10.73;;;13.40;75.20;;;12.31;75.90;98996.94;5064290;28;20542;-73
2021/10/27 10:35:24;;;;;;;12.30;11.00;;;13.50;75.50;;;12.02;74.46;98993.50;5071175;28;20489;-71
2021/10/27 10:38:04;;;;;;;12.37;11.07;;;13.20;73.60;;;11.73;76.35;98998.09;5083125;28;21019;-71
2021/10/27 10:41:00;;;;;;;12.93;10.40;;;13.00;75.00;;;12.02;76.40;98993.50;5058622;28;20449;-71
2021/10/27 11:26:11;;;;;;;12.13;7.83;;;14.80;67.80;;;13.47;68.67;98955.38;5072448;28;20760;-73
2021/10/27 11:39:46;;;;;;;8.27;7.43;;;15.10;65.80;;;13.89;66.40;98952.34;5052925;28;21018;-73
2021/10/27 11:42:38;;;;;;;8.50;7.80;;;15.00;66.40;;;13.74;66.77;98945.28;5074921;28;20452;-76
2021/10/27 11:45:23;;;;;;;8.00;7.10;;;14.90;66.10;;;13.24;66.57;98934.91;5066179;28;20466;-74
2021/10/27 11:47:54;;;;;;;7.43;5.37;;;14.60;65.40;;;12.91;67.81;98903.19;5070694;28;20460;-74
2021/10/27 11:50:22;;;;;;;6.90;4.37;;;14.40;66.00;;;13.16;66.83;98935.13;5052159;28;20465;-76
2021/10/27 11:52:52;;;;;;;5.67;4.00;;;14.20;65.40;;;13.37;65.85;98933.22;5070498;28;20492;-75
2021/10/27 11:55:23;;;;;;;4.00;3.03;;;14.40;65.30;;;13.21;64.85;98929.91;5050106;28;20458;-72
2021/10/27 11:57:54;;;;;;;4.20;3.77;;;14.30;64.10;;;13.02;66.66;98926.13;5055468;28;20466;-80
2021/10/27 12:00:32;;;;;;;5.17;4.27;;;14.20;64.80;;;13.10;66.82;98917.81;5050784;28;20465;-74
2021/10/27 12:03:04;;;;;;;3.93;3.60;;;14.20;65.40;;;13.08;66.43;98914.47;5068034;28;20499;-75
2021/10/27 12:05:39;;;;;;;4.97;3.73;;;14.20;65.00;;;13.17;65.63;98917.81;5065546;28;20504;-73
2021/10/27 12:08:22;;;;;;;4.50;4.10;;;14.20;64.60;;;13.37;64.73;98914.22;5074687;28;20693;-73
2021/10/27 12:13:56;;;;;;;8.43;4.30;;;14.50;64.30;;;13.57;64.34;98904.19;5047245;28;20544;-73
2021/10/27 12:16:46;;;;;;;3.40;3.00;;;14.70;64.00;;;13.84;63.37;98895.13;5064253;28;20457;-72
2021/10/27 12:19:18;;;;;;;4.57;2.63;;;14.80;63.60;;;13.46;64.04;98894.81;5065664;28;20450;-73
2021/10/27 12:21:53;;;;;;;3.17;2.97;;;14.60;63.10;;;13.26;64.72;98883.97;5069200;28;20940;-73
2021/10/27 12:24:24;;;;;;;3.80;3.40;;;14.50;63.60;;;13.37;64.94;98884.34;5077576;28;20452;-72
2021/10/27 12:27:01;;;;;;;3.63;3.10;;;14.40;63.90;;;13.26;65.11;98880.44;5051638;28;20447;-73
2021/10/27 12:29:30;;;;;;;4.00;2.97;;;14.40;63.80;;;13.31;65.29;98886.88;5051390;28;20472;-73